sensor_id;sensor_type;location;lat;lon;timestamp;P1;durP1;ratioP1;P2;durP2;ratioP2
7557;SDS011;3820;51.098;13.716;2023-01-19T00:00:27;34.23;;;18.67;;
7557;SDS011;3820;51.098;13.716;2023-01-19T00:02:54;36.30;;;19.97;;
7557;SDS011;3820;51.098;13.716;2023-01-19T00:05:21;38.90;;;19.43;;
7557;SDS011;3820;51.098;13.716;2023-01-19T00:07:48;38.10;;;19.77;;
7557;SDS011;3820;51.098;13.716;2023-01-19T00:10:14;35.83;;;19.60;;
7557;SDS011;3820;51.098;13.716;2023-01-19T00:12:41;40.43;;;19.07;;
7557;SDS011;3820;51.098;13.716;2023-01-19T00:15:08;38.63;;;19.57;;
7557;SDS011;3820;51.098;13.716;2023-01-19T00:17:35;37.07;;;19.67;;
7557;SDS011;3820;51.098;13.716;2023-01-19T00:20:02;34.17;;;19.23;;
7557;SDS011;3820;51.098;13.716;2023-01-19T00:22:29;38.77;;;19.93;;
7557;SDS011;3820;51.098;13.716;2023-01-19T00:24:56;36.93;;;20.40;;
7557;SDS011;3820;51.098;13.716;2023-01-19T00:27:22;45.33;;;21.57;;
7557;SDS011;3820;51.098;13.716;2023-01-19T00:29:50;37.87;;;20.80;;
7557;SDS011;3820;51.098;13.716;2023-01-19T00:32:16;41.87;;;21.90;;
7557;SDS011;3820;51.098;13.716;2023-01-19T00:34:45;43.00;;;21.67;;
7557;SDS011;3820;51.098;13.716;2023-01-19T00:37:16;42.93;;;22.47;;
7557;SDS011;3820;51.098;13.716;2023-01-19T00:39:42;40.47;;;21.47;;
7557;SDS011;3820;51.098;13.716;2023-01-19T00:42:12;37.90;;;20.90;;
7557;SDS011;3820;51.098;13.716;2023-01-19T00:44:57;39.03;;;19.93;;
7557;SDS011;3820;51.098;13.716;2023-01-19T00:47:24;33.40;;;19.33;;
7557;SDS011;3820;51.098;13.716;2023-01-19T00:49:51;35.77;;;19.80;;
7557;SDS011;3820;51.098;13.716;2023-01-19T00:52:17;35.33;;;20.10;;
7557;SDS011;3820;51.098;13.716;2023-01-19T00:54:44;33.50;;;19.73;;
7557;SDS011;3820;51.098;13.716;2023-01-19T00:57:11;39.17;;;20.53;;
7557;SDS011;3820;51.098;13.716;2023-01-19T00:59:37;36.57;;;19.30;;
7557;SDS011;3820;51.098;13.716;2023-01-19T01:02:04;39.10;;;19.83;;
7557;SDS011;3820;51.098;13.716;2023-01-19T01:04:32;39.63;;;20.50;;
7557;SDS011;3820;51.098;13.716;2023-01-19T01:07:00;36.90;;;20.07;;
7557;SDS011;3820;51.098;13.716;2023-01-19T01:09:26;36.67;;;20.33;;
7557;SDS011;3820;51.098;13.716;2023-01-19T01:11:53;42.07;;;20.67;;
7557;SDS011;3820;51.098;13.716;2023-01-19T01:14:20;43.17;;;20.80;;
7557;SDS011;3820;51.098;13.716;2023-01-19T01:16:47;40.23;;;21.00;;
7557;SDS011;3820;51.098;13.716;2023-01-19T01:19:13;44.17;;;21.47;;
7557;SDS011;3820;51.098;13.716;2023-01-19T01:21:40;42.13;;;20.97;;
7557;SDS011;3820;51.098;13.716;2023-01-19T01:24:07;39.37;;;20.30;;
7557;SDS011;3820;51.098;13.716;2023-01-19T01:26:34;38.27;;;20.57;;
7557;SDS011;3820;51.098;13.716;2023-01-19T01:29:01;33.73;;;18.77;;
7557;SDS011;3820;51.098;13.716;2023-01-19T01:31:28;37.17;;;18.67;;
7557;SDS011;3820;51.098;13.716;2023-01-19T01:33:55;40.17;;;19.83;;
7557;SDS011;3820;51.098;13.716;2023-01-19T01:36:21;37.57;;;18.63;;
7557;SDS011;3820;51.098;13.716;2023-01-19T01:38:48;29.57;;;17.97;;
7557;SDS011;3820;51.098;13.716;2023-01-19T01:41:14;31.73;;;18.83;;
7557;SDS011;3820;51.098;13.716;2023-01-19T01:43:48;33.37;;;18.67;;
7557;SDS011;3820;51.098;13.716;2023-01-19T01:46:16;35.80;;;18.97;;
7557;SDS011;3820;51.098;13.716;2023-01-19T01:48:49;32.47;;;17.87;;
7557;SDS011;3820;51.098;13.716;2023-01-19T01:51:42;30.63;;;16.80;;
7557;SDS011;3820;51.098;13.716;2023-01-19T01:54:20;30.13;;;16.77;;
7557;SDS011;3820;51.098;13.716;2023-01-19T01:56:51;25.90;;;15.77;;
7557;SDS011;3820;51.098;13.716;2023-01-19T01:59:22;36.60;;;17.10;;
7557;SDS011;3820;51.098;13.716;2023-01-19T02:01:55;30.43;;;17.07;;
7557;SDS011;3820;51.098;13.716;2023-01-19T02:04:43;28.43;;;15.90;;
7557;SDS011;3820;51.098;13.716;2023-01-19T02:07:13;34.97;;;16.57;;
7557;SDS011;3820;51.098;13.716;2023-01-19T02:10:01;33.70;;;17.67;;
7557;SDS011;3820;51.098;13.716;2023-01-19T02:12:46;28.77;;;16.10;;
7557;SDS011;3820;51.098;13.716;2023-01-19T02:15:32;29.83;;;17.17;;
7557;SDS011;3820;51.098;13.716;2023-01-19T02:17:58;31.57;;;17.23;;
7557;SDS011;3820;51.098;13.716;2023-01-19T02:20:26;32.77;;;17.17;;
7557;SDS011;3820;51.098;13.716;2023-01-19T02:22:54;37.60;;;18.30;;
7557;SDS011;3820;51.098;13.716;2023-01-19T02:25:21;32.60;;;17.30;;
7557;SDS011;3820;51.098;13.716;2023-01-19T02:27:49;35.93;;;17.10;;
7557;SDS011;3820;51.098;13.716;2023-01-19T02:30:16;29.50;;;15.93;;
7557;SDS011;3820;51.098;13.716;2023-01-19T02:32:43;29.20;;;15.40;;
7557;SDS011;3820;51.098;13.716;2023-01-19T02:35:10;28.27;;;17.20;;
7557;SDS011;3820;51.098;13.716;2023-01-19T02:37:38;27.97;;;16.00;;
7557;SDS011;3820;51.098;13.716;2023-01-19T02:40:07;30.27;;;17.10;;
7557;SDS011;3820;51.098;13.716;2023-01-19T02:42:41;29.00;;;15.73;;
7557;SDS011;3820;51.098;13.716;2023-01-19T02:45:11;29.23;;;16.67;;
7557;SDS011;3820;51.098;13.716;2023-01-19T02:47:44;29.30;;;15.53;;
7557;SDS011;3820;51.098;13.716;2023-01-19T02:55:56;26.80;;;14.87;;
7557;SDS011;3820;51.098;13.716;2023-01-19T03:02:09;31.57;;;15.23;;
7557;SDS011;3820;51.098;13.716;2023-01-19T03:04:35;25.33;;;14.90;;
7557;SDS011;3820;51.098;13.716;2023-01-19T03:07:41;31.47;;;15.17;;
7557;SDS011;3820;51.098;13.716;2023-01-19T03:10:46;28.17;;;15.00;;
7557;SDS011;3820;51.098;13.716;2023-01-19T03:16:20;32.47;;;17.17;;
7557;SDS011;3820;51.098;13.716;2023-01-19T03:18:50;30.27;;;16.00;;
7557;SDS011;3820;51.098;13.716;2023-01-19T03:21:19;30.13;;;17.23;;
7557;SDS011;3820;51.098;13.716;2023-01-19T03:23:48;33.67;;;16.20;;
7557;SDS011;3820;51.098;13.716;2023-01-19T03:26:18;30.90;;;16.43;;
7557;SDS011;3820;51.098;13.716;2023-01-19T03:28:46;32.53;;;16.73;;
7557;SDS011;3820;51.098;13.716;2023-01-19T03:31:15;30.83;;;17.63;;
7557;SDS011;3820;51.098;13.716;2023-01-19T03:33:45;28.87;;;17.17;;
7557;SDS011;3820;51.098;13.716;2023-01-19T03:36:33;29.30;;;16.43;;
7557;SDS011;3820;51.098;13.716;2023-01-19T03:39:02;29.37;;;16.50;;
7557;SDS011;3820;51.098;13.716;2023-01-19T03:41:31;32.47;;;16.87;;
7557;SDS011;3820;51.098;13.716;2023-01-19T03:43:59;33.23;;;15.87;;
7557;SDS011;3820;51.098;13.716;2023-01-19T03:46:26;28.20;;;16.00;;
7557;SDS011;3820;51.098;13.716;2023-01-19T03:48:53;34.03;;;16.97;;
7557;SDS011;3820;51.098;13.716;2023-01-19T03:51:20;31.63;;;16.83;;
7557;SDS011;3820;51.098;13.716;2023-01-19T03:53:47;30.83;;;16.63;;
7557;SDS011;3820;51.098;13.716;2023-01-19T03:56:19;33.20;;;16.97;;
7557;SDS011;3820;51.098;13.716;2023-01-19T03:58:47;34.37;;;17.67;;
7557;SDS011;3820;51.098;13.716;2023-01-19T04:01:14;35.80;;;17.97;;
7557;SDS011;3820;51.098;13.716;2023-01-19T04:03:41;31.77;;;17.33;;
7557;SDS011;3820;51.098;13.716;2023-01-19T04:06:08;30.27;;;15.27;;
7557;SDS011;3820;51.098;13.716;2023-01-19T04:08:35;27.47;;;16.10;;
7557;SDS011;3820;51.098;13.716;2023-01-19T04:11:02;27.40;;;15.07;;
7557;SDS011;3820;51.098;13.716;2023-01-19T04:13:28;30.17;;;15.13;;
7557;SDS011;3820;51.098;13.716;2023-01-19T04:16:02;24.67;;;15.10;;
7557;SDS011;3820;51.098;13.716;2023-01-19T04:18:30;26.27;;;14.33;;
7557;SDS011;3820;51.098;13.716;2023-01-19T04:21:00;26.03;;;15.10;;
7557;SDS011;3820;51.098;13.716;2023-01-19T04:23:28;24.17;;;13.70;;
7557;SDS011;3820;51.098;13.716;2023-01-19T04:25:56;26.97;;;13.77;;
7557;SDS011;3820;51.098;13.716;2023-01-19T04:28:23;24.27;;;14.13;;
7557;SDS011;3820;51.098;13.716;2023-01-19T04:30:50;22.97;;;13.30;;
7557;SDS011;3820;51.098;13.716;2023-01-19T04:33:20;25.47;;;14.30;;
7557;SDS011;3820;51.098;13.716;2023-01-19T04:35:48;21.90;;;13.10;;
7557;SDS011;3820;51.098;13.716;2023-01-19T04:38:18;25.07;;;13.33;;
7557;SDS011;3820;51.098;13.716;2023-01-19T04:40:45;25.53;;;13.80;;
7557;SDS011;3820;51.098;13.716;2023-01-19T04:43:12;21.77;;;13.57;;
7557;SDS011;3820;51.098;13.716;2023-01-19T04:45:39;19.87;;;12.57;;
7557;SDS011;3820;51.098;13.716;2023-01-19T04:48:06;25.43;;;13.20;;
7557;SDS011;3820;51.098;13.716;2023-01-19T04:50:32;17.67;;;11.73;;
7557;SDS011;3820;51.098;13.716;2023-01-19T04:52:58;27.70;;;13.30;;
7557;SDS011;3820;51.098;13.716;2023-01-19T04:55:26;19.03;;;11.77;;
7557;SDS011;3820;51.098;13.716;2023-01-19T04:57:53;19.90;;;11.57;;
7557;SDS011;3820;51.098;13.716;2023-01-19T05:00:19;21.90;;;10.67;;
7557;SDS011;3820;51.098;13.716;2023-01-19T05:02:46;18.70;;;10.43;;
7557;SDS011;3820;51.098;13.716;2023-01-19T05:05:13;18.53;;;10.87;;
7557;SDS011;3820;51.098;13.716;2023-01-19T05:07:40;16.30;;;9.33;;
7557;SDS011;3820;51.098;13.716;2023-01-19T05:10:08;21.17;;;10.07;;
7557;SDS011;3820;51.098;13.716;2023-01-19T05:12:35;15.97;;;9.83;;
7557;SDS011;3820;51.098;13.716;2023-01-19T05:15:03;22.33;;;10.10;;
7557;SDS011;3820;51.098;13.716;2023-01-19T05:17:29;15.07;;;9.60;;
7557;SDS011;3820;51.098;13.716;2023-01-19T05:19:56;16.73;;;10.13;;
7557;SDS011;3820;51.098;13.716;2023-01-19T05:22:22;16.87;;;10.63;;
7557;SDS011;3820;51.098;13.716;2023-01-19T05:24:49;14.70;;;9.73;;
7557;SDS011;3820;51.098;13.716;2023-01-19T05:27:16;13.77;;;9.07;;
7557;SDS011;3820;51.098;13.716;2023-01-19T05:29:42;19.33;;;9.77;;
7557;SDS011;3820;51.098;13.716;2023-01-19T05:32:08;15.93;;;9.93;;
7557;SDS011;3820;51.098;13.716;2023-01-19T05:34:35;14.43;;;8.97;;
7557;SDS011;3820;51.098;13.716;2023-01-19T05:37:02;13.53;;;9.17;;
7557;SDS011;3820;51.098;13.716;2023-01-19T05:39:28;15.60;;;9.20;;
7557;SDS011;3820;51.098;13.716;2023-01-19T05:41:55;14.03;;;8.83;;
7557;SDS011;3820;51.098;13.716;2023-01-19T05:44:22;17.93;;;10.40;;
7557;SDS011;3820;51.098;13.716;2023-01-19T05:46:48;14.27;;;9.23;;
7557;SDS011;3820;51.098;13.716;2023-01-19T05:49:15;15.93;;;9.33;;
7557;SDS011;3820;51.098;13.716;2023-01-19T05:51:41;18.67;;;10.43;;
7557;SDS011;3820;51.098;13.716;2023-01-19T05:54:11;19.43;;;10.57;;
7557;SDS011;3820;51.098;13.716;2023-01-19T05:56:40;23.73;;;14.77;;
7557;SDS011;3820;51.098;13.716;2023-01-19T05:59:08;15.63;;;9.50;;
7557;SDS011;3820;51.098;13.716;2023-01-19T06:01:35;19.63;;;12.87;;
7557;SDS011;3820;51.098;13.716;2023-01-19T06:04:05;17.20;;;9.40;;
7557;SDS011;3820;51.098;13.716;2023-01-19T06:06:32;17.20;;;9.97;;
7557;SDS011;3820;51.098;13.716;2023-01-19T06:08:58;20.43;;;11.83;;
7557;SDS011;3820;51.098;13.716;2023-01-19T06:11:25;18.90;;;10.37;;
7557;SDS011;3820;51.098;13.716;2023-01-19T06:13:51;18.93;;;9.77;;
7557;SDS011;3820;51.098;13.716;2023-01-19T06:16:18;17.97;;;9.80;;
7557;SDS011;3820;51.098;13.716;2023-01-19T06:18:45;18.83;;;10.87;;
7557;SDS011;3820;51.098;13.716;2023-01-19T06:21:12;18.23;;;10.93;;
7557;SDS011;3820;51.098;13.716;2023-01-19T06:23:39;18.80;;;10.70;;
7557;SDS011;3820;51.098;13.716;2023-01-19T06:26:06;17.00;;;10.87;;
7557;SDS011;3820;51.098;13.716;2023-01-19T06:28:32;19.20;;;11.13;;
7557;SDS011;3820;51.098;13.716;2023-01-19T06:30:59;18.57;;;10.47;;
7557;SDS011;3820;51.098;13.716;2023-01-19T06:33:26;19.97;;;10.30;;
7557;SDS011;3820;51.098;13.716;2023-01-19T06:35:53;17.17;;;11.17;;
7557;SDS011;3820;51.098;13.716;2023-01-19T06:38:20;18.10;;;10.60;;
7557;SDS011;3820;51.098;13.716;2023-01-19T06:40:54;20.30;;;11.97;;
7557;SDS011;3820;51.098;13.716;2023-01-19T06:43:23;22.17;;;12.60;;
7557;SDS011;3820;51.098;13.716;2023-01-19T06:45:51;24.63;;;15.13;;
7557;SDS011;3820;51.098;13.716;2023-01-19T06:48:17;25.83;;;14.37;;
7557;SDS011;3820;51.098;13.716;2023-01-19T06:50:45;28.40;;;15.50;;
7557;SDS011;3820;51.098;13.716;2023-01-19T06:53:12;26.57;;;16.07;;
7557;SDS011;3820;51.098;13.716;2023-01-19T06:55:42;27.80;;;15.43;;
7557;SDS011;3820;51.098;13.716;2023-01-19T06:58:09;25.47;;;13.87;;
7557;SDS011;3820;51.098;13.716;2023-01-19T07:00:35;26.10;;;13.50;;
7557;SDS011;3820;51.098;13.716;2023-01-19T07:03:04;27.57;;;13.23;;
7557;SDS011;3820;51.098;13.716;2023-01-19T07:05:33;24.90;;;12.77;;
7557;SDS011;3820;51.098;13.716;2023-01-19T07:08:00;24.37;;;12.57;;
7557;SDS011;3820;51.098;13.716;2023-01-19T07:10:26;22.47;;;12.77;;
7557;SDS011;3820;51.098;13.716;2023-01-19T07:13:13;19.93;;;11.67;;
7557;SDS011;3820;51.098;13.716;2023-01-19T07:15:40;20.90;;;11.07;;
7557;SDS011;3820;51.098;13.716;2023-01-19T07:18:07;19.03;;;11.37;;
7557;SDS011;3820;51.098;13.716;2023-01-19T07:20:35;20.57;;;12.10;;
7557;SDS011;3820;51.098;13.716;2023-01-19T07:23:02;20.80;;;12.23;;
7557;SDS011;3820;51.098;13.716;2023-01-19T07:25:29;21.13;;;11.53;;
7557;SDS011;3820;51.098;13.716;2023-01-19T07:27:59;20.97;;;11.30;;
7557;SDS011;3820;51.098;13.716;2023-01-19T07:30:26;21.07;;;10.53;;
7557;SDS011;3820;51.098;13.716;2023-01-19T07:32:54;20.33;;;10.77;;
7557;SDS011;3820;51.098;13.716;2023-01-19T07:35:22;18.23;;;10.80;;
7557;SDS011;3820;51.098;13.716;2023-01-19T07:37:49;18.97;;;11.40;;
7557;SDS011;3820;51.098;13.716;2023-01-19T07:40:16;20.97;;;11.27;;
7557;SDS011;3820;51.098;13.716;2023-01-19T07:42:46;22.20;;;11.70;;
7557;SDS011;3820;51.098;13.716;2023-01-19T07:45:17;25.43;;;14.37;;
7557;SDS011;3820;51.098;13.716;2023-01-19T07:47:46;32.70;;;15.30;;
7557;SDS011;3820;51.098;13.716;2023-01-19T07:50:17;24.07;;;13.50;;
7557;SDS011;3820;51.098;13.716;2023-01-19T07:52:46;27.27;;;13.70;;
7557;SDS011;3820;51.098;13.716;2023-01-19T07:55:15;25.17;;;15.60;;
7557;SDS011;3820;51.098;13.716;2023-01-19T07:57:42;22.10;;;12.87;;
7557;SDS011;3820;51.098;13.716;2023-01-19T08:00:09;26.47;;;14.37;;
7557;SDS011;3820;51.098;13.716;2023-01-19T08:02:36;24.20;;;13.60;;
7557;SDS011;3820;51.098;13.716;2023-01-19T08:05:03;26.23;;;16.07;;
7557;SDS011;3820;51.098;13.716;2023-01-19T08:07:29;20.13;;;11.43;;
7557;SDS011;3820;51.098;13.716;2023-01-19T08:09:56;17.87;;;11.47;;
7557;SDS011;3820;51.098;13.716;2023-01-19T08:12:23;16.73;;;11.33;;
7557;SDS011;3820;51.098;13.716;2023-01-19T08:14:49;16.03;;;11.63;;
7557;SDS011;3820;51.098;13.716;2023-01-19T08:17:16;15.57;;;10.90;;
7557;SDS011;3820;51.098;13.716;2023-01-19T08:19:42;14.83;;;10.60;;
7557;SDS011;3820;51.098;13.716;2023-01-19T08:22:09;16.87;;;9.87;;
7557;SDS011;3820;51.098;13.716;2023-01-19T08:24:35;13.10;;;8.80;;
7557;SDS011;3820;51.098;13.716;2023-01-19T08:27:02;12.80;;;9.13;;
7557;SDS011;3820;51.098;13.716;2023-01-19T08:29:29;14.70;;;9.13;;
7557;SDS011;3820;51.098;13.716;2023-01-19T08:31:57;10.83;;;7.97;;
7557;SDS011;3820;51.098;13.716;2023-01-19T08:34:26;12.13;;;8.67;;
7557;SDS011;3820;51.098;13.716;2023-01-19T08:36:53;12.27;;;8.23;;
7557;SDS011;3820;51.098;13.716;2023-01-19T08:39:19;13.20;;;8.20;;
7557;SDS011;3820;51.098;13.716;2023-01-19T08:41:46;11.03;;;7.70;;
7557;SDS011;3820;51.098;13.716;2023-01-19T08:44:12;10.17;;;7.90;;
7557;SDS011;3820;51.098;13.716;2023-01-19T08:46:39;11.40;;;7.97;;
7557;SDS011;3820;51.098;13.716;2023-01-19T08:49:05;14.13;;;10.10;;
7557;SDS011;3820;51.098;13.716;2023-01-19T08:51:32;12.40;;;8.23;;
7557;SDS011;3820;51.098;13.716;2023-01-19T08:53:59;13.60;;;8.57;;
7557;SDS011;3820;51.098;13.716;2023-01-19T08:56:25;10.00;;;7.77;;
7557;SDS011;3820;51.098;13.716;2023-01-19T08:58:52;11.07;;;7.73;;
7557;SDS011;3820;51.098;13.716;2023-01-19T09:01:33;10.77;;;7.73;;
7557;SDS011;3820;51.098;13.716;2023-01-19T09:04:00;11.27;;;8.10;;
7557;SDS011;3820;51.098;13.716;2023-01-19T09:06:26;11.07;;;7.80;;
7557;SDS011;3820;51.098;13.716;2023-01-19T09:08:53;11.50;;;8.63;;
7557;SDS011;3820;51.098;13.716;2023-01-19T09:11:20;11.03;;;8.37;;
7557;SDS011;3820;51.098;13.716;2023-01-19T09:13:46;11.03;;;8.37;;
7557;SDS011;3820;51.098;13.716;2023-01-19T09:16:13;11.30;;;8.10;;
7557;SDS011;3820;51.098;13.716;2023-01-19T09:18:41;12.63;;;8.40;;
7557;SDS011;3820;51.098;13.716;2023-01-19T09:21:07;9.57;;;7.17;;
7557;SDS011;3820;51.098;13.716;2023-01-19T09:23:34;9.40;;;7.27;;
7557;SDS011;3820;51.098;13.716;2023-01-19T09:26:01;12.37;;;7.40;;
7557;SDS011;3820;51.098;13.716;2023-01-19T09:28:29;11.67;;;7.70;;
7557;SDS011;3820;51.098;13.716;2023-01-19T09:30:56;10.07;;;7.47;;
7557;SDS011;3820;51.098;13.716;2023-01-19T09:33:23;11.33;;;7.63;;
7557;SDS011;3820;51.098;13.716;2023-01-19T09:35:50;12.77;;;7.77;;
7557;SDS011;3820;51.098;13.716;2023-01-19T09:38:17;9.53;;;6.97;;
7557;SDS011;3820;51.098;13.716;2023-01-19T09:40:50;11.10;;;7.43;;
7557;SDS011;3820;51.098;13.716;2023-01-19T09:43:20;9.87;;;7.10;;
7557;SDS011;3820;51.098;13.716;2023-01-19T09:46:18;10.03;;;7.07;;
7557;SDS011;3820;51.098;13.716;2023-01-19T09:48:51;11.40;;;7.60;;
7557;SDS011;3820;51.098;13.716;2023-01-19T09:51:23;9.17;;;7.53;;
7557;SDS011;3820;51.098;13.716;2023-01-19T09:56:40;11.93;;;7.70;;
7557;SDS011;3820;51.098;13.716;2023-01-19T09:59:16;12.23;;;7.67;;
7557;SDS011;3820;51.098;13.716;2023-01-19T10:07:02;12.77;;;9.40;;
7557;SDS011;3820;51.098;13.716;2023-01-19T10:12:32;9.13;;;7.10;;
7557;SDS011;3820;51.098;13.716;2023-01-19T10:15:16;9.63;;;6.50;;
7557;SDS011;3820;51.098;13.716;2023-01-19T10:20:58;14.97;;;8.93;;
7557;SDS011;3820;51.098;13.716;2023-01-19T10:26:12;12.03;;;7.10;;
7557;SDS011;3820;51.098;13.716;2023-01-19T10:28:41;10.50;;;8.33;;
7557;SDS011;3820;51.098;13.716;2023-01-19T10:31:09;12.37;;;6.90;;
7557;SDS011;3820;51.098;13.716;2023-01-19T10:33:37;37.10;;;8.23;;
7557;SDS011;3820;51.098;13.716;2023-01-19T10:36:04;15.63;;;7.30;;
7557;SDS011;3820;51.098;13.716;2023-01-19T10:38:32;15.07;;;7.00;;
7557;SDS011;3820;51.098;13.716;2023-01-19T10:41:04;10.03;;;7.10;;
7557;SDS011;3820;51.098;13.716;2023-01-19T10:46:06;11.83;;;8.77;;
7557;SDS011;3820;51.098;13.716;2023-01-19T10:48:42;56.03;;;7.87;;
7557;SDS011;3820;51.098;13.716;2023-01-19T10:51:09;25.37;;;8.10;;
7557;SDS011;3820;51.098;13.716;2023-01-19T10:53:36;49.00;;;9.10;;
7557;SDS011;3820;51.098;13.716;2023-01-19T10:56:14;14.90;;;6.50;;
7557;SDS011;3820;51.098;13.716;2023-01-19T10:58:42;10.70;;;6.90;;
7557;SDS011;3820;51.098;13.716;2023-01-19T11:01:27;11.70;;;7.03;;
7557;SDS011;3820;51.098;13.716;2023-01-19T11:03:56;9.93;;;5.93;;
7557;SDS011;3820;51.098;13.716;2023-01-19T11:06:31;10.03;;;7.23;;
7557;SDS011;3820;51.098;13.716;2023-01-19T11:09:09;11.83;;;6.53;;
7557;SDS011;3820;51.098;13.716;2023-01-19T11:11:49;15.30;;;8.90;;
7557;SDS011;3820;51.098;13.716;2023-01-19T11:14:19;10.83;;;7.00;;
7557;SDS011;3820;51.098;13.716;2023-01-19T11:16:49;11.53;;;7.47;;
7557;SDS011;3820;51.098;13.716;2023-01-19T11:19:23;13.30;;;7.63;;
7557;SDS011;3820;51.098;13.716;2023-01-19T11:21:51;9.17;;;5.97;;
7557;SDS011;3820;51.098;13.716;2023-01-19T11:24:19;8.43;;;6.03;;
7557;SDS011;3820;51.098;13.716;2023-01-19T11:26:47;9.43;;;6.33;;
7557;SDS011;3820;51.098;13.716;2023-01-19T11:29:23;22.47;;;10.17;;
7557;SDS011;3820;51.098;13.716;2023-01-19T11:31:51;7.80;;;6.40;;
7557;SDS011;3820;51.098;13.716;2023-01-19T11:34:22;9.77;;;5.83;;
7557;SDS011;3820;51.098;13.716;2023-01-19T11:36:56;10.37;;;6.10;;
7557;SDS011;3820;51.098;13.716;2023-01-19T11:39:28;10.13;;;5.50;;
7557;SDS011;3820;51.098;13.716;2023-01-19T11:41:57;7.37;;;5.60;;
7557;SDS011;3820;51.098;13.716;2023-01-19T11:44:32;10.17;;;5.90;;
7557;SDS011;3820;51.098;13.716;2023-01-19T11:47:04;9.50;;;6.17;;
7557;SDS011;3820;51.098;13.716;2023-01-19T11:49:35;7.73;;;5.60;;
7557;SDS011;3820;51.098;13.716;2023-01-19T11:52:23;10.43;;;5.40;;
7557;SDS011;3820;51.098;13.716;2023-01-19T11:55:16;7.67;;;5.37;;
7557;SDS011;3820;51.098;13.716;2023-01-19T11:57:48;8.93;;;5.50;;
7557;SDS011;3820;51.098;13.716;2023-01-19T12:03:07;9.70;;;5.77;;
7557;SDS011;3820;51.098;13.716;2023-01-19T12:05:39;10.37;;;5.93;;
7557;SDS011;3820;51.098;13.716;2023-01-19T12:08:11;8.07;;;6.07;;
7557;SDS011;3820;51.098;13.716;2023-01-19T12:10:40;7.33;;;5.50;;
7557;SDS011;3820;51.098;13.716;2023-01-19T12:13:16;9.47;;;6.10;;
7557;SDS011;3820;51.098;13.716;2023-01-19T12:15:59;11.23;;;6.70;;
7557;SDS011;3820;51.098;13.716;2023-01-19T12:18:41;7.27;;;5.43;;
7557;SDS011;3820;51.098;13.716;2023-01-19T12:21:10;7.80;;;5.20;;
7557;SDS011;3820;51.098;13.716;2023-01-19T12:26:21;7.43;;;5.23;;
7557;SDS011;3820;51.098;13.716;2023-01-19T12:28:53;9.77;;;6.07;;
7557;SDS011;3820;51.098;13.716;2023-01-19T12:31:23;10.50;;;5.60;;
7557;SDS011;3820;51.098;13.716;2023-01-19T12:33:50;9.10;;;5.00;;
7557;SDS011;3820;51.098;13.716;2023-01-19T12:38:58;9.03;;;5.50;;
7557;SDS011;3820;51.098;13.716;2023-01-19T12:41:28;8.67;;;5.30;;
7557;SDS011;3820;51.098;13.716;2023-01-19T12:46:35;10.90;;;5.20;;
7557;SDS011;3820;51.098;13.716;2023-01-19T12:49:03;7.33;;;5.30;;
7557;SDS011;3820;51.098;13.716;2023-01-19T12:51:31;6.63;;;5.37;;
7557;SDS011;3820;51.098;13.716;2023-01-19T12:53:58;6.63;;;5.00;;
7557;SDS011;3820;51.098;13.716;2023-01-19T12:56:35;7.07;;;5.20;;
7557;SDS011;3820;51.098;13.716;2023-01-19T12:59:02;7.63;;;5.00;;
7557;SDS011;3820;51.098;13.716;2023-01-19T13:01:29;7.33;;;5.10;;
7557;SDS011;3820;51.098;13.716;2023-01-19T13:04:04;10.03;;;5.00;;
7557;SDS011;3820;51.098;13.716;2023-01-19T13:09:29;6.30;;;4.40;;
7557;SDS011;3820;51.098;13.716;2023-01-19T13:12:43;11.67;;;4.63;;
7557;SDS011;3820;51.098;13.716;2023-01-19T13:14:47;8.27;;;4.97;;
7557;SDS011;3820;51.098;13.716;2023-01-19T13:20:16;8.97;;;4.97;;
7557;SDS011;3820;51.098;13.716;2023-01-19T13:23:13;8.53;;;4.63;;
7557;SDS011;3820;51.098;13.716;2023-01-19T13:25:43;7.00;;;4.97;;
7557;SDS011;3820;51.098;13.716;2023-01-19T13:28:13;6.80;;;4.73;;
7557;SDS011;3820;51.098;13.716;2023-01-19T13:30:52;7.13;;;4.93;;
7557;SDS011;3820;51.098;13.716;2023-01-19T13:33:22;8.90;;;5.10;;
7557;SDS011;3820;51.098;13.716;2023-01-19T13:35:50;8.63;;;4.93;;
7557;SDS011;3820;51.098;13.716;2023-01-19T13:38:19;7.43;;;5.37;;
7557;SDS011;3820;51.098;13.716;2023-01-19T13:40:47;8.03;;;5.17;;
7557;SDS011;3820;51.098;13.716;2023-01-19T13:43:18;8.90;;;5.80;;
7557;SDS011;3820;51.098;13.716;2023-01-19T13:45:50;7.83;;;5.10;;
7557;SDS011;3820;51.098;13.716;2023-01-19T13:48:19;9.33;;;5.70;;
7557;SDS011;3820;51.098;13.716;2023-01-19T13:50:58;7.97;;;5.63;;
7557;SDS011;3820;51.098;13.716;2023-01-19T13:53:29;8.53;;;6.30;;
7557;SDS011;3820;51.098;13.716;2023-01-19T13:58:41;9.53;;;6.97;;
7557;SDS011;3820;51.098;13.716;2023-01-19T14:01:18;10.37;;;6.30;;
7557;SDS011;3820;51.098;13.716;2023-01-19T14:03:46;11.43;;;7.33;;
7557;SDS011;3820;51.098;13.716;2023-01-19T14:06:21;11.63;;;6.70;;
7557;SDS011;3820;51.098;13.716;2023-01-19T14:09:12;9.57;;;6.30;;
7557;SDS011;3820;51.098;13.716;2023-01-19T14:11:42;9.53;;;6.43;;
7557;SDS011;3820;51.098;13.716;2023-01-19T14:14:23;9.37;;;6.70;;
7557;SDS011;3820;51.098;13.716;2023-01-19T14:16:50;8.87;;;6.60;;
7557;SDS011;3820;51.098;13.716;2023-01-19T14:19:17;9.77;;;7.10;;
7557;SDS011;3820;51.098;13.716;2023-01-19T14:21:43;9.70;;;7.13;;
7557;SDS011;3820;51.098;13.716;2023-01-19T14:24:15;10.90;;;7.30;;
7557;SDS011;3820;51.098;13.716;2023-01-19T14:26:44;10.70;;;7.17;;
7557;SDS011;3820;51.098;13.716;2023-01-19T14:37:33;12.93;;;8.13;;
7557;SDS011;3820;51.098;13.716;2023-01-19T14:40:02;9.97;;;7.23;;
7557;SDS011;3820;51.098;13.716;2023-01-19T14:45:15;11.87;;;7.70;;
7557;SDS011;3820;51.098;13.716;2023-01-19T14:47:43;10.60;;;7.40;;
7557;SDS011;3820;51.098;13.716;2023-01-19T14:57:56;12.53;;;8.77;;
7557;SDS011;3820;51.098;13.716;2023-01-19T15:00:22;12.30;;;8.03;;
7557;SDS011;3820;51.098;13.716;2023-01-19T15:02:49;11.57;;;8.50;;
7557;SDS011;3820;51.098;13.716;2023-01-19T15:05:16;12.87;;;8.70;;
7557;SDS011;3820;51.098;13.716;2023-01-19T15:07:43;17.87;;;11.03;;
7557;SDS011;3820;51.098;13.716;2023-01-19T15:10:20;12.57;;;8.93;;
7557;SDS011;3820;51.098;13.716;2023-01-19T15:12:48;16.23;;;9.47;;
7557;SDS011;3820;51.098;13.716;2023-01-19T15:15:16;14.43;;;9.80;;
7557;SDS011;3820;51.098;13.716;2023-01-19T15:17:47;14.07;;;8.53;;
7557;SDS011;3820;51.098;13.716;2023-01-19T15:20:16;12.77;;;8.57;;
7557;SDS011;3820;51.098;13.716;2023-01-19T15:22:44;13.43;;;8.60;;
7557;SDS011;3820;51.098;13.716;2023-01-19T15:25:11;14.10;;;8.43;;
7557;SDS011;3820;51.098;13.716;2023-01-19T15:27:42;12.63;;;8.57;;
7557;SDS011;3820;51.098;13.716;2023-01-19T15:30:22;13.20;;;8.60;;
7557;SDS011;3820;51.098;13.716;2023-01-19T15:32:50;12.17;;;8.47;;
7557;SDS011;3820;51.098;13.716;2023-01-19T15:35:17;12.13;;;8.83;;
7557;SDS011;3820;51.098;13.716;2023-01-19T15:37:46;13.87;;;9.40;;
7557;SDS011;3820;51.098;13.716;2023-01-19T15:40:14;13.23;;;8.83;;
7557;SDS011;3820;51.098;13.716;2023-01-19T15:42:41;12.37;;;8.97;;
7557;SDS011;3820;51.098;13.716;2023-01-19T15:48:13;16.33;;;9.97;;
7557;SDS011;3820;51.098;13.716;2023-01-19T15:50:40;16.33;;;9.47;;
7557;SDS011;3820;51.098;13.716;2023-01-19T15:53:15;17.80;;;10.50;;
7557;SDS011;3820;51.098;13.716;2023-01-19T15:55:43;14.57;;;10.10;;
7557;SDS011;3820;51.098;13.716;2023-01-19T15:58:11;14.63;;;9.73;;
7557;SDS011;3820;51.098;13.716;2023-01-19T16:00:39;14.10;;;9.90;;
7557;SDS011;3820;51.098;13.716;2023-01-19T16:03:06;15.80;;;10.63;;
7557;SDS011;3820;51.098;13.716;2023-01-19T16:05:33;13.90;;;9.50;;
7557;SDS011;3820;51.098;13.716;2023-01-19T16:08:09;14.93;;;10.17;;
7557;SDS011;3820;51.098;13.716;2023-01-19T16:10:36;16.23;;;10.60;;